sensor_id;sensor_type;location;lat;lon;timestamp;temperature;humidity
71291;DHT22;59073;51.994;4.448;2023-04-03T00:01:24;5.73;72.24
71291;DHT22;59073;51.994;4.448;2023-04-03T00:03:49;5.69;71.94
71291;DHT22;59073;51.994;4.448;2023-04-03T00:06:16;5.55;72.75
71291;DHT22;59073;51.994;4.448;2023-04-03T00:08:42;5.55;72.91
71291;DHT22;59073;51.994;4.448;2023-04-03T00:11:08;5.56;72.48
71291;DHT22;59073;51.994;4.448;2023-04-03T00:13:34;5.49;72.79
71291;DHT22;59073;51.994;4.448;2023-04-03T00:16:01;5.45;72.90
71291;DHT22;59073;51.994;4.448;2023-04-03T00:18:29;5.49;72.77
71291;DHT22;59073;51.994;4.448;2023-04-03T00:20:54;5.39;73.84
71291;DHT22;59073;51.994;4.448;2023-04-03T00:23:20;5.42;73.20
71291;DHT22;59073;51.994;4.448;2023-04-03T00:25:46;5.46;72.98
71291;DHT22;59073;51.994;4.448;2023-04-03T00:28:12;5.39;73.03
71291;DHT22;59073;51.994;4.448;2023-04-03T00:30:37;5.40;72.98
71291;DHT22;59073;51.994;4.448;2023-04-03T00:33:03;5.40;72.76
71291;DHT22;59073;51.994;4.448;2023-04-03T00:35:28;5.26;73.07
71291;DHT22;59073;51.994;4.448;2023-04-03T00:37:55;5.26;72.99
71291;DHT22;59073;51.994;4.448;2023-04-03T00:40:23;5.18;73.55
71291;DHT22;59073;51.994;4.448;2023-04-03T00:42:55;5.18;73.48
71291;DHT22;59073;51.994;4.448;2023-04-03T00:48:01;5.04;74.02
71291;DHT22;59073;51.994;4.448;2023-04-03T00:50:29;5.04;73.56
71291;DHT22;59073;51.994;4.448;2023-04-03T00:52:56;4.99;73.46
71291;DHT22;59073;51.994;4.448;2023-04-03T00:55:22;5.02;73.19
71291;DHT22;59073;51.994;4.448;2023-04-03T00:57:48;4.91;73.37
71291;DHT22;59073;51.994;4.448;2023-04-03T01:00:17;4.92;73.46
71291;DHT22;59073;51.994;4.448;2023-04-03T01:02:43;4.94;73.33
71291;DHT22;59073;51.994;4.448;2023-04-03T01:05:10;4.88;73.28
71291;DHT22;59073;51.994;4.448;2023-04-03T01:07:37;4.91;73.42
71291;DHT22;59073;51.994;4.448;2023-04-03T01:10:07;4.98;72.97
71291;DHT22;59073;51.994;4.448;2023-04-03T01:12:36;4.91;72.58
71291;DHT22;59073;51.994;4.448;2023-04-03T01:15:09;4.84;72.92
71291;DHT22;59073;51.994;4.448;2023-04-03T01:17:42;4.89;72.88
71291;DHT22;59073;51.994;4.448;2023-04-03T01:20:31;4.74;73.52
71291;DHT22;59073;51.994;4.448;2023-04-03T01:25:48;4.70;73.43
71291;DHT22;59073;51.994;4.448;2023-04-03T01:28:18;4.73;73.03
71291;DHT22;59073;51.994;4.448;2023-04-03T01:30:55;4.70;73.48
71291;DHT22;59073;51.994;4.448;2023-04-03T01:33:21;4.70;72.96
71291;DHT22;59073;51.994;4.448;2023-04-03T01:35:47;4.61;73.24
71291;DHT22;59073;51.994;4.448;2023-04-03T01:38:12;4.68;73.00
71291;DHT22;59073;51.994;4.448;2023-04-03T01:40:37;4.67;72.99
71291;DHT22;59073;51.994;4.448;2023-04-03T01:43:03;4.68;72.97
71291;DHT22;59073;51.994;4.448;2023-04-03T01:45:28;4.67;72.84
71291;DHT22;59073;51.994;4.448;2023-04-03T01:47:54;4.68;72.87
71291;DHT22;59073;51.994;4.448;2023-04-03T01:50:19;4.61;73.57
71291;DHT22;59073;51.994;4.448;2023-04-03T01:52:45;4.64;73.31
71291;DHT22;59073;51.994;4.448;2023-04-03T01:55:10;4.56;74.06
71291;DHT22;59073;51.994;4.448;2023-04-03T01:57:35;4.43;74.11
71291;DHT22;59073;51.994;4.448;2023-04-03T02:00:01;4.42;74.07
71291;DHT22;59073;51.994;4.448;2023-04-03T02:02:26;4.50;74.29
71291;DHT22;59073;51.994;4.448;2023-04-03T02:04:53;4.42;74.29
71291;DHT22;59073;51.994;4.448;2023-04-03T02:07:20;4.50;73.87
71291;DHT22;59073;51.994;4.448;2023-04-03T02:09:45;4.56;73.80
71291;DHT22;59073;51.994;4.448;2023-04-03T02:12:10;4.54;74.02
71291;DHT22;59073;51.994;4.448;2023-04-03T02:14:36;4.46;74.14
71291;DHT22;59073;51.994;4.448;2023-04-03T02:17:01;4.46;73.84
71291;DHT22;59073;51.994;4.448;2023-04-03T02:19:31;4.49;73.87
71291;DHT22;59073;51.994;4.448;2023-04-03T02:21:56;4.54;73.54
71291;DHT22;59073;51.994;4.448;2023-04-03T02:24:21;4.40;73.62
71291;DHT22;59073;51.994;4.448;2023-04-03T02:26:47;4.28;74.64
71291;DHT22;59073;51.994;4.448;2023-04-03T02:29:12;4.30;74.50
71291;DHT22;59073;51.994;4.448;2023-04-03T02:31:37;4.39;74.04
71291;DHT22;59073;51.994;4.448;2023-04-03T02:34:03;4.40;74.09
71291;DHT22;59073;51.994;4.448;2023-04-03T02:36:28;4.43;73.97
71291;DHT22;59073;51.994;4.448;2023-04-03T02:38:54;4.46;73.77
71291;DHT22;59073;51.994;4.448;2023-04-03T02:41:19;4.44;73.75
71291;DHT22;59073;51.994;4.448;2023-04-03T02:43:46;4.36;73.77
71291;DHT22;59073;51.994;4.448;2023-04-03T02:46:11;4.28;74.30
71291;DHT22;59073;51.994;4.448;2023-04-03T02:48:39;4.20;74.33
71291;DHT22;59073;51.994;4.448;2023-04-03T02:51:04;4.20;74.51
71291;DHT22;59073;51.994;4.448;2023-04-03T02:53:30;4.19;74.49
71291;DHT22;59073;51.994;4.448;2023-04-03T02:55:55;4.19;74.68
71291;DHT22;59073;51.994;4.448;2023-04-03T02:58:21;4.17;74.80
71291;DHT22;59073;51.994;4.448;2023-04-03T03:00:46;4.09;75.04
71291;DHT22;59073;51.994;4.448;2023-04-03T03:03:11;4.05;75.56
71291;DHT22;59073;51.994;4.448;2023-04-03T03:05:38;4.09;76.25
71291;DHT22;59073;51.994;4.448;2023-04-03T03:08:04;4.15;76.85
71291;DHT22;59073;51.994;4.448;2023-04-03T03:10:29;4.07;76.73
71291;DHT22;59073;51.994;4.448;2023-04-03T03:12:55;4.01;77.37
71291;DHT22;59073;51.994;4.448;2023-04-03T03:15:21;3.93;77.44
71291;DHT22;59073;51.994;4.448;2023-04-03T03:17:46;3.89;77.41
71291;DHT22;59073;51.994;4.448;2023-04-03T03:20:12;3.86;76.98
71291;DHT22;59073;51.994;4.448;2023-04-03T03:22:40;3.93;76.89
71291;DHT22;59073;51.994;4.448;2023-04-03T03:25:06;3.93;77.01
71291;DHT22;59073;51.994;4.448;2023-04-03T03:27:32;3.86;77.08
71291;DHT22;59073;51.994;4.448;2023-04-03T03:29:57;3.71;77.68
71291;DHT22;59073;51.994;4.448;2023-04-03T03:32:22;3.72;77.82
71291;DHT22;59073;51.994;4.448;2023-04-03T03:34:48;3.81;77.54
71291;DHT22;59073;51.994;4.448;2023-04-03T03:37:13;3.84;77.69
71291;DHT22;59073;51.994;4.448;2023-04-03T03:39:39;3.77;77.85
71291;DHT22;59073;51.994;4.448;2023-04-03T03:42:04;3.78;77.71
71291;DHT22;59073;51.994;4.448;2023-04-03T03:44:30;3.79;77.42
71291;DHT22;59073;51.994;4.448;2023-04-03T03:46:55;3.85;77.09
71291;DHT22;59073;51.994;4.448;2023-04-03T03:49:21;3.84;76.99
71291;DHT22;59073;51.994;4.448;2023-04-03T03:51:47;3.81;76.88
71291;DHT22;59073;51.994;4.448;2023-04-03T03:54:12;3.74;77.14
71291;DHT22;59073;51.994;4.448;2023-04-03T03:56:39;3.71;77.42
71291;DHT22;59073;51.994;4.448;2023-04-03T03:59:05;3.67;77.36
71291;DHT22;59073;51.994;4.448;2023-04-03T04:01:30;3.62;77.32
71291;DHT22;59073;51.994;4.448;2023-04-03T04:03:56;3.72;77.26
71291;DHT22;59073;51.994;4.448;2023-04-03T04:06:21;3.71;77.38
71291;DHT22;59073;51.994;4.448;2023-04-03T04:08:47;3.75;77.30
71291;DHT22;59073;51.994;4.448;2023-04-03T04:11:13;3.67;77.08
71291;DHT22;59073;51.994;4.448;2023-04-03T04:13:38;3.60;76.98
71291;DHT22;59073;51.994;4.448;2023-04-03T04:16:04;3.57;77.05
71291;DHT22;59073;51.994;4.448;2023-04-03T04:18:30;3.48;77.14
71291;DHT22;59073;51.994;4.448;2023-04-03T04:20:56;3.51;77.05
71291;DHT22;59073;51.994;4.448;2023-04-03T04:23:21;3.54;77.14
71291;DHT22;59073;51.994;4.448;2023-04-03T04:25:48;3.50;77.07
71291;DHT22;59073;51.994;4.448;2023-04-03T04:28:14;3.45;77.23
71291;DHT22;59073;51.994;4.448;2023-04-03T04:30:40;3.33;77.67
71291;DHT22;59073;51.994;4.448;2023-04-03T04:33:05;3.34;77.81
71291;DHT22;59073;51.994;4.448;2023-04-03T04:35:32;3.40;77.74
71291;DHT22;59073;51.994;4.448;2023-04-03T04:37:57;3.33;78.06
71291;DHT22;59073;51.994;4.448;2023-04-03T04:40:23;3.34;78.39
71291;DHT22;59073;51.994;4.448;2023-04-03T04:42:48;3.41;78.53
71291;DHT22;59073;51.994;4.448;2023-04-03T04:45:14;3.43;78.76
71291;DHT22;59073;51.994;4.448;2023-04-03T04:47:40;3.41;78.88
71291;DHT22;59073;51.994;4.448;2023-04-03T04:50:07;3.50;78.78
71291;DHT22;59073;51.994;4.448;2023-04-03T04:52:32;3.40;78.82
71291;DHT22;59073;51.994;4.448;2023-04-03T04:54:58;3.30;79.23
71291;DHT22;59073;51.994;4.448;2023-04-03T04:57:23;3.26;79.27
71291;DHT22;59073;51.994;4.448;2023-04-03T04:59:49;3.34;79.06
71291;DHT22;59073;51.994;4.448;2023-04-03T05:02:15;3.31;78.75
71291;DHT22;59073;51.994;4.448;2023-04-03T05:04:40;3.34;78.69
71291;DHT22;59073;51.994;4.448;2023-04-03T05:07:06;3.41;78.44
71291;DHT22;59073;51.994;4.448;2023-04-03T05:09:31;3.43;78.16
71291;DHT22;59073;51.994;4.448;2023-04-03T05:11:57;3.53;79.81
71291;DHT22;59073;51.994;4.448;2023-04-03T05:14:22;3.60;77.89
71291;DHT22;59073;51.994;4.448;2023-04-03T05:16:48;3.38;77.96
71291;DHT22;59073;51.994;4.448;2023-04-03T05:19:13;3.40;78.18
71291;DHT22;59073;51.994;4.448;2023-04-03T05:21:39;3.50;77.70
71291;DHT22;59073;51.994;4.448;2023-04-03T05:24:05;3.70;77.32
71291;DHT22;59073;51.994;4.448;2023-04-03T05:26:34;3.99;76.46
71291;DHT22;59073;51.994;4.448;2023-04-03T05:28:59;4.28;75.43
71291;DHT22;59073;51.994;4.448;2023-04-03T05:31:25;4.43;74.60
71291;DHT22;59073;51.994;4.448;2023-04-03T05:33:50;4.58;74.63
71291;DHT22;59073;51.994;4.448;2023-04-03T05:36:16;4.95;73.36
71291;DHT22;59073;51.994;4.448;2023-04-03T05:38:41;5.26;72.58
71291;DHT22;59073;51.994;4.448;2023-04-03T05:41:06;5.40;71.53
71291;DHT22;59073;51.994;4.448;2023-04-03T05:43:32;5.57;71.41
71291;DHT22;59073;51.994;4.448;2023-04-03T05:45:59;5.86;70.44
71291;DHT22;59073;51.994;4.448;2023-04-03T05:48:25;6.11;69.26
71291;DHT22;59073;51.994;4.448;2023-04-03T05:50:51;6.53;68.44
71291;DHT22;59073;51.994;4.448;2023-04-03T05:53:22;6.87;67.67
71291;DHT22;59073;51.994;4.448;2023-04-03T05:55:49;7.32;66.18
71291;DHT22;59073;51.994;4.448;2023-04-03T05:58:15;7.67;64.68
71291;DHT22;59073;51.994;4.448;2023-04-03T06:00:40;7.32;66.12
71291;DHT22;59073;51.994;4.448;2023-04-03T06:03:05;7.69;64.10
71291;DHT22;59073;51.994;4.448;2023-04-03T06:05:31;7.88;64.06
71291;DHT22;59073;51.994;4.448;2023-04-03T06:07:57;8.39;62.16
71291;DHT22;59073;51.994;4.448;2023-04-03T06:10:22;8.75;61.14
71291;DHT22;59073;51.994;4.448;2023-04-03T06:12:48;9.08;60.41
71291;DHT22;59073;51.994;4.448;2023-04-03T06:15:13;8.78;60.44
71291;DHT22;59073;51.994;4.448;2023-04-03T06:17:40;8.71;61.81
71291;DHT22;59073;51.994;4.448;2023-04-03T06:20:06;8.71;61.39
71291;DHT22;59073;51.994;4.448;2023-04-03T06:22:32;8.67;61.30
71291;DHT22;59073;51.994;4.448;2023-04-03T06:24:58;8.68;61.52
71291;DHT22;59073;51.994;4.448;2023-04-03T06:27:23;8.71;61.75
71291;DHT22;59073;51.994;4.448;2023-04-03T06:29:49;8.92;60.62
71291;DHT22;59073;51.994;4.448;2023-04-03T06:32:15;8.68;62.06
71291;DHT22;59073;51.994;4.448;2023-04-03T06:34:41;9.23;60.84
71291;DHT22;59073;51.994;4.448;2023-04-03T06:37:14;9.81;59.63
71291;DHT22;59073;51.994;4.448;2023-04-03T06:39:40;9.11;61.44
71291;DHT22;59073;51.994;4.448;2023-04-03T06:42:07;8.43;62.26
71291;DHT22;59073;51.994;4.448;2023-04-03T06:44:32;7.89;63.66
71291;DHT22;59073;51.994;4.448;2023-04-03T06:47:00;7.61;65.39
71291;DHT22;59073;51.994;4.448;2023-04-03T06:49:25;8.41;64.62
71291;DHT22;59073;51.994;4.448;2023-04-03T06:51:51;7.90;63.53
71291;DHT22;59073;51.994;4.448;2023-04-03T06:54:17;7.83;66.72
71291;DHT22;59073;51.994;4.448;2023-04-03T06:56:43;8.27;62.14
71291;DHT22;59073;51.994;4.448;2023-04-03T06:59:09;7.61;64.91
71291;DHT22;59073;51.994;4.448;2023-04-03T07:01:35;7.16;65.66
71291;DHT22;59073;51.994;4.448;2023-04-03T07:04:00;7.18;66.20
71291;DHT22;59073;51.994;4.448;2023-04-03T07:06:26;7.31;65.15
71291;DHT22;59073;51.994;4.448;2023-04-03T07:08:52;7.50;64.38
71291;DHT22;59073;51.994;4.448;2023-04-03T07:11:17;7.03;65.90
71291;DHT22;59073;51.994;4.448;2023-04-03T07:13:43;7.68;65.13
71291;DHT22;59073;51.994;4.448;2023-04-03T07:16:09;7.43;63.40
71291;DHT22;59073;51.994;4.448;2023-04-03T07:18:35;6.79;67.09
71291;DHT22;59073;51.994;4.448;2023-04-03T07:21:02;6.48;66.90
71291;DHT22;59073;51.994;4.448;2023-04-03T07:23:28;6.75;66.75
71291;DHT22;59073;51.994;4.448;2023-04-03T07:25:53;6.75;66.84
71291;DHT22;59073;51.994;4.448;2023-04-03T07:28:20;6.11;68.07
71291;DHT22;59073;51.994;4.448;2023-04-03T07:30:54;6.32;68.72
71291;DHT22;59073;51.994;4.448;2023-04-03T07:33:22;5.84;68.50
71291;DHT22;59073;51.994;4.448;2023-04-03T07:35:48;5.96;69.15
71291;DHT22;59073;51.994;4.448;2023-04-03T07:38:14;6.32;69.70
71291;DHT22;59073;51.994;4.448;2023-04-03T07:40:47;5.59;68.68
71291;DHT22;59073;51.994;4.448;2023-04-03T07:43:14;5.87;69.79
71291;DHT22;59073;51.994;4.448;2023-04-03T07:45:39;6.36;68.46
71291;DHT22;59073;51.994;4.448;2023-04-03T07:48:05;6.24;68.18
71291;DHT22;59073;51.994;4.448;2023-04-03T07:50:31;6.29;70.22
71291;DHT22;59073;51.994;4.448;2023-04-03T07:52:57;6.48;67.28
71291;DHT22;59073;51.994;4.448;2023-04-03T07:55:23;6.83;70.54
71291;DHT22;59073;51.994;4.448;2023-04-03T07:57:49;6.77;66.60
71291;DHT22;59073;51.994;4.448;2023-04-03T08:00:15;6.22;68.26
71291;DHT22;59073;51.994;4.448;2023-04-03T08:02:43;6.35;66.80
71291;DHT22;59073;51.994;4.448;2023-04-03T08:05:10;6.72;66.53
71291;DHT22;59073;51.994;4.448;2023-04-03T08:07:39;6.62;67.48
71291;DHT22;59073;51.994;4.448;2023-04-03T08:10:04;6.55;66.64
71291;DHT22;59073;51.994;4.448;2023-04-03T08:12:30;6.44;65.20
71291;DHT22;59073;51.994;4.448;2023-04-03T08:14:57;6.39;66.01
71291;DHT22;59073;51.994;4.448;2023-04-03T08:17:22;6.61;67.50
71291;DHT22;59073;51.994;4.448;2023-04-03T08:19:48;7.07;65.98
71291;DHT22;59073;51.994;4.448;2023-04-03T08:22:13;7.18;64.31
71291;DHT22;59073;51.994;4.448;2023-04-03T08:24:39;7.18;63.80
71291;DHT22;59073;51.994;4.448;2023-04-03T08:27:04;7.45;64.50
71291;DHT22;59073;51.994;4.448;2023-04-03T08:29:30;7.27;63.40
71291;DHT22;59073;51.994;4.448;2023-04-03T08:31:58;7.13;62.53
71291;DHT22;59073;51.994;4.448;2023-04-03T08:34:24;7.24;63.12
71291;DHT22;59073;51.994;4.448;2023-04-03T08:36:49;7.13;62.61
71291;DHT22;59073;51.994;4.448;2023-04-03T08:39:15;7.98;64.14
71291;DHT22;59073;51.994;4.448;2023-04-03T08:41:44;8.13;61.92
71291;DHT22;59073;51.994;4.448;2023-04-03T08:47:22;8.10;60.45
71291;DHT22;59073;51.994;4.448;2023-04-03T08:49:59;8.00;60.34
71291;DHT22;59073;51.994;4.448;2023-04-03T08:52:48;8.09;62.35
71291;DHT22;59073;51.994;4.448;2023-04-03T08:55:22;7.45;60.56
71291;DHT22;59073;51.994;4.448;2023-04-03T08:57:53;7.54;55.73
71291;DHT22;59073;51.994;4.448;2023-04-03T09:00:27;7.88;58.91
71291;DHT22;59073;51.994;4.448;2023-04-03T09:02:56;8.07;58.70
71291;DHT22;59073;51.994;4.448;2023-04-03T09:08:24;8.37;53.11
71291;DHT22;59073;51.994;4.448;2023-04-03T09:11:00;8.36;54.42
71291;DHT22;59073;51.994;4.448;2023-04-03T09:22:26;9.07;56.34
71291;DHT22;59073;51.994;4.448;2023-04-03T09:25:02;8.56;47.22
71291;DHT22;59073;51.994;4.448;2023-04-03T09:27:30;8.63;50.22
71291;DHT22;59073;51.994;4.448;2023-04-03T09:29:57;8.71;49.36
71291;DHT22;59073;51.994;4.448;2023-04-03T09:32:32;8.20;45.88
71291;DHT22;59073;51.994;4.448;2023-04-03T09:35:35;8.47;45.84
71291;DHT22;59073;51.994;4.448;2023-04-03T09:38:15;8.50;47.10
71291;DHT22;59073;51.994;4.448;2023-04-03T09:40:46;8.22;44.19
71291;DHT22;59073;51.994;4.448;2023-04-03T09:43:24;8.29;45.51
71291;DHT22;59073;51.994;4.448;2023-04-03T09:45:52;8.60;45.33
71291;DHT22;59073;51.994;4.448;2023-04-03T09:48:23;8.61;42.30
71291;DHT22;59073;51.994;4.448;2023-04-03T09:56:04;8.65;44.19
71291;DHT22;59073;51.994;4.448;2023-04-03T09:58:38;8.30;42.74
71291;DHT22;59073;51.994;4.448;2023-04-03T10:01:27;8.60;44.60
71291;DHT22;59073;51.994;4.448;2023-04-03T10:04:11;8.78;44.40
71291;DHT22;59073;51.994;4.448;2023-04-03T10:06:40;8.91;45.21
71291;DHT22;59073;51.994;4.448;2023-04-03T10:09:29;8.40;44.61
71291;DHT22;59073;51.994;4.448;2023-04-03T10:12:09;9.01;44.29
71291;DHT22;59073;51.994;4.448;2023-04-03T10:14:39;8.95;44.18
71291;DHT22;59073;51.994;4.448;2023-04-03T10:25:03;8.97;43.65
71291;DHT22;59073;51.994;4.448;2023-04-03T10:27:54;8.98;43.38
71291;DHT22;59073;51.994;4.448;2023-04-03T10:30:34;9.09;43.51
71291;DHT22;59073;51.994;4.448;2023-04-03T10:33:28;9.15;43.81
71291;DHT22;59073;51.994;4.448;2023-04-03T10:36:22;9.59;46.08
71291;DHT22;59073;51.994;4.448;2023-04-03T10:42:11;9.29;41.49
71291;DHT22;59073;51.994;4.448;2023-04-03T10:44:46;9.15;39.22
71291;DHT22;59073;51.994;4.448;2023-04-03T10:47:24;9.23;38.85
71291;DHT22;59073;51.994;4.448;2023-04-03T10:50:12;9.57;40.39
71291;DHT22;59073;51.994;4.448;2023-04-03T10:52:55;9.56;37.90
71291;DHT22;59073;51.994;4.448;2023-04-03T10:57:54;9.67;40.86
71291;DHT22;59073;51.994;4.448;2023-04-03T11:00:41;9.90;39.57
71291;DHT22;59073;51.994;4.448;2023-04-03T11:05:53;9.71;40.18
71291;DHT22;59073;51.994;4.448;2023-04-03T11:11:03;9.40;39.28
71291;DHT22;59073;51.994;4.448;2023-04-03T11:13:38;9.11;38.07
71291;DHT22;59073;51.994;4.448;2023-04-03T11:16:06;9.39;39.11
71291;DHT22;59073;51.994;4.448;2023-04-03T11:18:43;9.44;38.44
71291;DHT22;59073;51.994;4.448;2023-04-03T11:21:21;9.64;38.62
71291;DHT22;59073;51.994;4.448;2023-04-03T11:23:51;9.54;37.08
71291;DHT22;59073;51.994;4.448;2023-04-03T11:26:29;9.61;38.92
71291;DHT22;59073;51.994;4.448;2023-04-03T11:29:12;9.70;42.43
71291;DHT22;59073;51.994;4.448;2023-04-03T11:31:47;9.76;38.50
71291;DHT22;59073;51.994;4.448;2023-04-03T11:34:41;9.69;38.23
71291;DHT22;59073;51.994;4.448;2023-04-03T11:37:35;9.91;35.20
71291;DHT22;59073;51.994;4.448;2023-04-03T11:42:39;9.49;36.76
71291;DHT22;59073;51.994;4.448;2023-04-03T11:58:17;9.80;37.06
71291;DHT22;59073;51.994;4.448;2023-04-03T12:05:54;9.46;34.64
71291;DHT22;59073;51.994;4.448;2023-04-03T12:14:02;9.49;34.52
71291;DHT22;59073;51.994;4.448;2023-04-03T12:38:22;10.31;32.08
71291;DHT22;59073;51.994;4.448;2023-04-03T12:44:13;9.51;34.89
71291;DHT22;59073;51.994;4.448;2023-04-03T12:46:49;9.54;37.28
71291;DHT22;59073;51.994;4.448;2023-04-03T12:51:52;9.46;34.53
71291;DHT22;59073;51.994;4.448;2023-04-03T12:54:35;10.18;36.87
71291;DHT22;59073;51.994;4.448;2023-04-03T12:57:23;9.93;35.20
71291;DHT22;59073;51.994;4.448;2023-04-03T12:59:49;9.80;36.05
71291;DHT22;59073;51.994;4.448;2023-04-03T13:02:29;9.71;36.28
71291;DHT22;59073;51.994;4.448;2023-04-03T13:04:59;10.15;39.00
71291;DHT22;59073;51.994;4.448;2023-04-03T13:07:34;9.88;36.32
71291;DHT22;59073;51.994;4.448;2023-04-03T13:12:34;9.70;37.29
71291;DHT22;59073;51.994;4.448;2023-04-03T13:15:11;9.60;38.37
71291;DHT22;59073;51.994;4.448;2023-04-03T13:17:42;9.79;38.45
71291;DHT22;59073;51.994;4.448;2023-04-03T13:20:23;9.54;36.75
71291;DHT22;59073;51.994;4.448;2023-04-03T13:23:01;9.40;37.08
71291;DHT22;59073;51.994;4.448;2023-04-03T13:25:32;9.50;40.40
71291;DHT22;59073;51.994;4.448;2023-04-03T13:28:02;9.70;40.34
71291;DHT22;59073;51.994;4.448;2023-04-03T13:30:32;9.79;38.21
71291;DHT22;59073;51.994;4.448;2023-04-03T13:33:00;9.93;40.02
71291;DHT22;59073;51.994;4.448;2023-04-03T13:35:39;9.90;38.46
71291;DHT22;59073;51.994;4.448;2023-04-03T13:38:21;9.79;40.67
71291;DHT22;59073;51.994;4.448;2023-04-03T13:40:55;9.87;39.31
71291;DHT22;59073;51.994;4.448;2023-04-03T13:43:33;9.71;39.60
71291;DHT22;59073;51.994;4.448;2023-04-03T13:48:43;9.81;40.64
71291;DHT22;59073;51.994;4.448;2023-04-03T13:53:57;10.32;39.94
71291;DHT22;59073;51.994;4.448;2023-04-03T13:56:44;10.04;38.92
71291;DHT22;59073;51.994;4.448;2023-04-03T14:01:49;10.00;39.51
71291;DHT22;59073;51.994;4.448;2023-04-03T14:06:47;9.98;39.02
71291;DHT22;59073;51.994;4.448;2023-04-03T14:09:14;9.73;39.16
71291;DHT22;59073;51.994;4.448;2023-04-03T14:11:41;9.88;38.01
71291;DHT22;59073;51.994;4.448;2023-04-03T14:14:29;10.00;39.82
71291;DHT22;59073;51.994;4.448;2023-04-03T14:16:58;10.01;40.23
71291;DHT22;59073;51.994;4.448;2023-04-03T14:19:34;10.14;39.97
71291;DHT22;59073;51.994;4.448;2023-04-03T14:22:14;9.93;40.38
71291;DHT22;59073;51.994;4.448;2023-04-03T14:24:40;9.95;38.22
71291;DHT22;59073;51.994;4.448;2023-04-03T14:27:16;9.84;38.11
71291;DHT22;59073;51.994;4.448;2023-04-03T14:29:42;9.97;39.82
71291;DHT22;59073;51.994;4.448;2023-04-03T14:32:11;9.93;39.68
71291;DHT22;59073;51.994;4.448;2023-04-03T14:34:37;9.86;40.98
71291;DHT22;59073;51.994;4.448;2023-04-03T14:37:04;9.97;40.11
71291;DHT22;59073;51.994;4.448;2023-04-03T14:39:30;9.83;39.61
71291;DHT22;59073;51.994;4.448;2023-04-03T14:41:55;10.04;40.88
71291;DHT22;59073;51.994;4.448;2023-04-03T14:44:21;10.07;41.29
71291;DHT22;59073;51.994;4.448;2023-04-03T14:46:46;9.94;38.83
71291;DHT22;59073;51.994;4.448;2023-04-03T14:49:15;9.70;39.23
71291;DHT22;59073;51.994;4.448;2023-04-03T14:51:43;10.01;40.92
71291;DHT22;59073;51.994;4.448;2023-04-03T14:54:18;9.90;40.16
71291;DHT22;59073;51.994;4.448;2023-04-03T14:56:45;10.04;40.98
71291;DHT22;59073;51.994;4.448;2023-04-03T14:59:12;10.11;39.36
71291;DHT22;59073;51.994;4.448;2023-04-03T15:01:38;10.07;40.22
71291;DHT22;59073;51.994;4.448;2023-04-03T15:04:18;9.98;41.87
71291;DHT22;59073;51.994;4.448;2023-04-03T15:06:45;10.12;41.63
71291;DHT22;59073;51.994;4.448;2023-04-03T15:11:44;10.10;40.32
71291;DHT22;59073;51.994;4.448;2023-04-03T15:14:10;10.01;37.99
71291;DHT22;59073;51.994;4.448;2023-04-03T15:16:35;9.83;39.68
71291;DHT22;59073;51.994;4.448;2023-04-03T15:19:01;9.77;40.24
71291;DHT22;59073;51.994;4.448;2023-04-03T15:21:26;9.88;41.88
71291;DHT22;59073;51.994;4.448;2023-04-03T15:23:52;9.77;41.70
71291;DHT22;59073;51.994;4.448;2023-04-03T15:26:17;9.91;41.79
71291;DHT22;59073;51.994;4.448;2023-04-03T15:28:43;10.07;43.71
71291;DHT22;59073;51.994;4.448;2023-04-03T15:31:09;10.24;37.14
71291;DHT22;59073;51.994;4.448;2023-04-03T15:33:36;10.32;38.71
71291;DHT22;59073;51.994;4.448;2023-04-03T15:36:02;9.98;38.86
71291;DHT22;59073;51.994;4.448;2023-04-03T15:38:28;10.00;39.06
71291;DHT22;59073;51.994;4.448;2023-04-03T15:40:55;10.04;38.56
71291;DHT22;59073;51.994;4.448;2023-04-03T15:43:21;10.12;38.95
71291;DHT22;59073;51.994;4.448;2023-04-03T15:45:47;10.07;40.27
71291;DHT22;59073;51.994;4.448;2023-04-03T15:48:14;10.10;38.89
71291;DHT22;59073;51.994;4.448;2023-04-03T15:50:40;10.39;39.77
71291;DHT22;59073;51.994;4.448;2023-04-03T15:53:06;10.44;39.28
71291;DHT22;59073;51.994;4.448;2023-04-03T15:55:34;10.46;37.79
71291;DHT22;59073;51.994;4.448;2023-04-03T15:58:00;10.01;39.39
71291;DHT22;59073;51.994;4.448;2023-04-03T16:00:27;10.21;39.59
71291;DHT22;59073;51.994;4.448;2023-04-03T16:02:59;10.15;39.18
71291;DHT22;59073;51.994;4.448;2023-04-03T16:05:27;10.32;41.26
71291;DHT22;59073;51.994;4.448;2023-04-03T16:07:53;10.02;39.16
71291;DHT22;59073;51.994;4.448;2023-04-03T16:10:20;10.10;40.95
71291;DHT22;59073;51.994;4.448;2023-04-03T16:12:46;10.00;41.14
71291;DHT22;59073;51.994;4.448;2023-04-03T16:15:12;9.87;41.65
71291;DHT22;59073;51.994;4.448;2023-04-03T16:17:39;10.02;37.58
71291;DHT22;59073;51.994;4.448;2023-04-03T16:20:07;10.27;40.36
71291;DHT22;59073;51.994;4.448;2023-04-03T16:22:33;10.45;40.46
71291;DHT22;59073;51.994;4.448;2023-04-03T16:25:00;10.17;39.28
71291;DHT22;59073;51.994;4.448;2023-04-03T16:27:25;9.97;38.42
71291;DHT22;59073;51.994;4.448;2023-04-03T16:29:58;10.12;39.26
71291;DHT22;59073;51.994;4.448;2023-04-03T16:32:27;10.25;38.51
71291;DHT22;59073;51.994;4.448;2023-04-03T16:34:55;10.22;37.69
71291;DHT22;59073;51.994;4.448;2023-04-03T16:37:20;10.04;39.33
71291;DHT22;59073;51.994;4.448;2023-04-03T16:39:46;10.15;40.28
71291;DHT22;59073;51.994;4.448;2023-04-03T16:42:12;9.83;39.25
71291;DHT22;59073;51.994;4.448;2023-04-03T16:44:37;9.80;38.33
71291;DHT22;59073;51.994;4.448;2023-04-03T16:47:05;9.95;37.86
71291;DHT22;59073;51.994;4.448;2023-04-03T16:49:31;9.77;41.28
71291;DHT22;59073;51.994;4.448;2023-04-03T16:52:00;9.70;42.62
71291;DHT22;59073;51.994;4.448;2023-04-03T16:54:26;9.57;40.79
71291;DHT22;59073;51.994;4.448;2023-04-03T16:56:52;9.43;40.10
71291;DHT22;59073;51.994;4.448;2023-04-03T16:59:18;9.42;41.16
71291;DHT22;59073;51.994;4.448;2023-04-03T17:01:43;9.49;40.54
71291;DHT22;59073;51.994;4.448;2023-04-03T17:04:09;9.57;41.43
71291;DHT22;59073;51.994;4.448;2023-04-03T17:06:34;9.66;42.82
71291;DHT22;59073;51.994;4.448;2023-04-03T17:09:00;9.84;40.97
71291;DHT22;59073;51.994;4.448;2023-04-03T17:11:26;9.77;40.19
71291;DHT22;59073;51.994;4.448;2023-04-03T17:13:52;9.70;40.62
71291;DHT22;59073;51.994;4.448;2023-04-03T17:16:18;9.51;41.80
71291;DHT22;59073;51.994;4.448;2023-04-03T17:18:45;9.70;41.68
71291;DHT22;59073;51.994;4.448;2023-04-03T17:21:12;9.57;43.64
71291;DHT22;59073;51.994;4.448;2023-04-03T17:23:41;9.47;43.38
71291;DHT22;59073;51.994;4.448;2023-04-03T17:26:07;9.60;43.45
71291;DHT22;59073;51.994;4.448;2023-04-03T17:28:32;9.57;46.91
71291;DHT22;59073;51.994;4.448;2023-04-03T17:31:00;9.73;45.08
71291;DHT22;59073;51.994;4.448;2023-04-03T17:33:27;9.59;45.55
71291;DHT22;59073;51.994;4.448;2023-04-03T17:35:59;9.70;45.88
71291;DHT22;59073;51.994;4.448;2023-04-03T17:38:30;9.63;44.88
71291;DHT22;59073;51.994;4.448;2023-04-03T17:41:02;9.19;47.21
71291;DHT22;59073;51.994;4.448;2023-04-03T17:43:28;9.28;46.88
71291;DHT22;59073;51.994;4.448;2023-04-03T17:45:59;9.14;47.95
71291;DHT22;59073;51.994;4.448;2023-04-03T17:48:29;9.32;47.16